Time;durP1;ratioP1;P1;durP2;ratioP2;P2;SDS_P1;SDS_P2;PMS_P1;PMS_P2;Temp;Humidity;BMP_temperature;BMP_pressure;BME280_temperature;BME280_humidity;BME280_pressure;Samples;Min_cycle;Max_cycle;Signal;HPM_P1;HPM_P2
2022/06/28 00:00:55;;;;;;;0.10;0.10;;;;;;;;;;5017715;28;20129;-70
2022/06/28 00:03:21;;;;;;;0.20;0.20;;;;;;;;;;5017170;28;20164;-70
2022/06/28 00:05:47;;;;;;;0.10;0.10;;;;;;;;;;5017399;28;20504;-70
2022/06/28 00:08:13;;;;;;;0.10;0.10;;;;;;;;;;5017346;28;20052;-70
2022/06/28 00:10:40;;;;;;;0.30;0.30;;;;;;;;;;5017056;28;20030;-70
2022/06/28 00:13:06;;;;;;;0.20;0.20;;;;;;;;;;5016965;28;20073;-70
2022/06/28 00:18:17;;;;;;;0.32;0.32;;;;;;;;;;5016654;28;20041;-70
2022/06/28 00:20:43;;;;;;;0.30;0.30;;;;;;;;;;5017362;28;20125;-70
2022/06/28 00:23:09;;;;;;;1.55;0.55;;;;;;;;;;5017591;28;20042;-70
2022/06/28 00:25:35;;;;;;;0.10;0.10;;;;;;;;;;5016720;28;20046;-70
2022/06/28 00:28:01;;;;;;;0.20;0.20;;;;;;;;;;5017394;28;20058;-70
2022/06/28 00:30:28;;;;;;;0.10;0.10;;;;;;;;;;5017240;28;20038;-70
2022/06/28 00:32:54;;;;;;;0.20;0.20;;;;;;;;;;5016865;28;20119;-70
2022/06/28 00:35:20;;;;;;;0.10;0.10;;;;;;;;;;5017022;28;20145;-70
2022/06/28 00:37:46;;;;;;;0.10;0.10;;;;;;;;;;5017056;28;20077;-71
2022/06/28 00:40:12;;;;;;;0.10;0.10;;;;;;;;;;5016978;28;20108;-70
2022/06/28 00:42:39;;;;;;;0.10;0.10;;;;;;;;;;5015672;28;20555;-70
2022/06/28 00:45:06;;;;;;;0.10;0.10;;;;;;;;;;5016930;28;20095;-70
2022/06/28 00:47:33;;;;;;;0.20;0.20;;;;;;;;;;5016513;28;20497;-70
2022/06/28 00:49:59;;;;;;;0.20;0.20;;;;;;;;;;5017122;28;20056;-70
2022/06/28 00:52:26;;;;;;;0.10;0.10;;;;;;;;;;5016960;28;20519;-70
2022/06/28 00:54:52;;;;;;;0.10;0.10;;;;;;;;;;5016930;28;20049;-70
2022/06/28 00:57:18;;;;;;;0.17;0.17;;;;;;;;;;5016198;28;20045;-70
2022/06/28 00:59:44;;;;;;;0.52;0.52;;;;;;;;;;5016650;28;20065;-70
2022/06/28 01:02:11;;;;;;;0.10;0.10;;;;;;;;;;5016623;28;20046;-70
2022/06/28 01:04:37;;;;;;;0.32;0.32;;;;;;;;;;5016248;28;20045;-70
2022/06/28 01:07:04;;;;;;;0.20;0.20;;;;;;;;;;5016530;28;20077;-70
2022/06/28 01:09:30;;;;;;;0.10;0.10;;;;;;;;;;5016454;28;20045;-70
2022/06/28 01:11:56;;;;;;;0.22;0.22;;;;;;;;;;5016240;28;20046;-70
2022/06/28 01:14:24;;;;;;;0.10;0.10;;;;;;;;;;5016279;28;20067;-70
2022/06/28 01:16:50;;;;;;;0.10;0.10;;;;;;;;;;5016520;28;20120;-70
2022/06/28 01:19:16;;;;;;;0.20;0.20;;;;;;;;;;5016308;28;20064;-70
2022/06/28 01:21:43;;;;;;;0.15;0.15;;;;;;;;;;5015884;28;20511;-70
2022/06/28 01:24:09;;;;;;;0.10;0.10;;;;;;;;;;5016217;28;20048;-70
2022/06/28 01:26:36;;;;;;;0.10;0.10;;;;;;;;;;5016260;28;20100;-70
2022/06/28 01:29:02;;;;;;;0.20;0.20;;;;;;;;;;5016352;28;20104;-70
2022/06/28 01:31:28;;;;;;;0.17;0.17;;;;;;;;;;5016264;28;20104;-70
2022/06/28 01:33:54;;;;;;;0.35;0.35;;;;;;;;;;5015716;28;20087;-70
2022/06/28 01:36:21;;;;;;;0.20;0.20;;;;;;;;;;5016071;28;20081;-70
2022/06/28 01:38:47;;;;;;;0.10;0.10;;;;;;;;;;5016061;28;20485;-70
2022/06/28 01:41:32;;;;;;;0.43;0.43;;;;;;;;;;5015761;28;20037;-70
2022/06/28 01:43:59;;;;;;;0.08;0.08;;;;;;;;;;5015595;28;20042;-70
2022/06/28 01:46:26;;;;;;;0.10;0.10;;;;;;;;;;5015829;28;20060;-70
2022/06/28 01:48:52;;;;;;;0.28;0.28;;;;;;;;;;5015803;28;20034;-70
2022/06/28 01:51:18;;;;;;;0.30;0.30;;;;;;;;;;5015462;28;20053;-70
2022/06/28 01:53:44;;;;;;;0.35;0.20;;;;;;;;;;5015846;28;20042;-70
2022/06/28 01:56:11;;;;;;;0.20;0.20;;;;;;;;;;5015381;28;20057;-70
2022/06/28 01:58:39;;;;;;;0.10;0.10;;;;;;;;;;5016057;28;20041;-70
2022/06/28 02:01:05;;;;;;;0.10;0.10;;;;;;;;;;5015297;28;20052;-70
2022/06/28 02:03:31;;;;;;;0.20;0.20;;;;;;;;;;5015567;28;20042;-70
2022/06/28 02:05:57;;;;;;;0.32;0.32;;;;;;;;;;5015178;28;20069;-70
2022/06/28 02:08:23;;;;;;;0.28;0.28;;;;;;;;;;5015190;28;20448;-70
2022/06/28 02:10:49;;;;;;;0.30;0.30;;;;;;;;;;5014978;28;20046;-70
2022/06/28 02:13:15;;;;;;;0.47;0.30;;;;;;;;;;5015378;28;20037;-70
2022/06/28 02:15:42;;;;;;;0.77;0.15;;;;;;;;;;5015084;28;20504;-70
2022/06/28 02:18:08;;;;;;;0.10;0.10;;;;;;;;;;5015037;28;20481;-70
2022/06/28 02:20:34;;;;;;;0.20;0.20;;;;;;;;;;5015565;28;20064;-70
2022/06/28 02:23:00;;;;;;;0.15;0.15;;;;;;;;;;5014932;28;20041;-70
2022/06/28 02:25:26;;;;;;;0.10;0.10;;;;;;;;;;5014682;28;20046;-70
2022/06/28 02:27:52;;;;;;;0.28;0.28;;;;;;;;;;5014247;28;20108;-70
2022/06/28 02:30:21;;;;;;;0.10;0.10;;;;;;;;;;5015146;28;20453;-70
2022/06/28 02:32:47;;;;;;;0.22;0.22;;;;;;;;;;5014456;28;20480;-70
2022/06/28 02:40:42;;;;;;;0.13;0.13;;;;;;;;;;5014121;28;20523;-70
2022/06/28 02:43:08;;;;;;;0.20;0.20;;;;;;;;;;5014438;28;20038;-70
2022/06/28 02:45:39;;;;;;;0.10;0.10;;;;;;;;;;5015047;28;20084;-70
2022/06/28 02:48:06;;;;;;;0.17;0.17;;;;;;;;;;5014407;28;20042;-70
2022/06/28 02:50:32;;;;;;;0.10;0.10;;;;;;;;;;5014977;28;20160;-70
2022/06/28 02:52:59;;;;;;;0.10;0.10;;;;;;;;;;5014344;28;20473;-70
2022/06/28 02:55:25;;;;;;;0.20;0.20;;;;;;;;;;5014477;28;20085;-70
2022/06/28 02:57:51;;;;;;;0.28;0.28;;;;;;;;;;5014471;28;20038;-70
2022/06/28 03:00:18;;;;;;;0.20;0.20;;;;;;;;;;5014829;28;20041;-70
2022/06/28 03:02:45;;;;;;;0.10;0.10;;;;;;;;;;5014531;28;20493;-70
2022/06/28 03:05:13;;;;;;;0.10;0.10;;;;;;;;;;5014897;28;20096;-70
2022/06/28 03:07:40;;;;;;;0.10;0.10;;;;;;;;;;5018287;28;20042;-70
2022/06/28 03:10:06;;;;;;;0.20;0.20;;;;;;;;;;5018412;28;20481;-70
2022/06/28 03:12:33;;;;;;;0.10;0.10;;;;;;;;;;5017994;28;20034;-70
2022/06/28 03:14:59;;;;;;;0.13;0.13;;;;;;;;;;5017904;28;20050;-70
2022/06/28 03:17:26;;;;;;;0.20;0.20;;;;;;;;;;5018113;28;20493;-70
2022/06/28 03:19:52;;;;;;;0.10;0.10;;;;;;;;;;5018265;28;20055;-70
2022/06/28 03:22:18;;;;;;;0.10;0.10;;;;;;;;;;5018211;28;20041;-70
2022/06/28 03:24:44;;;;;;;0.10;0.10;;;;;;;;;;5018197;28;20042;-70
2022/06/28 03:27:11;;;;;;;0.30;0.30;;;;;;;;;;5017983;28;20112;-70
2022/06/28 03:29:37;;;;;;;0.10;0.10;;;;;;;;;;5017789;28;20038;-70
2022/06/28 03:32:03;;;;;;;0.40;0.40;;;;;;;;;;5018020;28;20042;-70
2022/06/28 03:34:29;;;;;;;0.43;0.43;;;;;;;;;;5016795;28;20061;-70
2022/06/28 03:36:55;;;;;;;0.38;0.38;;;;;;;;;;5017722;28;20496;-70
2022/06/28 03:39:22;;;;;;;0.10;0.10;;;;;;;;;;5017860;28;20129;-70
2022/06/28 03:41:48;;;;;;;0.10;0.10;;;;;;;;;;5017692;28;20041;-70
2022/06/28 03:44:14;;;;;;;0.10;0.10;;;;;;;;;;5017501;28;20519;-70
2022/06/28 03:46:40;;;;;;;0.47;0.30;;;;;;;;;;5017866;28;20523;-70
2022/06/28 03:49:06;;;;;;;0.73;0.73;;;;;;;;;;5017758;28;20040;-70
2022/06/28 03:51:32;;;;;;;0.17;0.17;;;;;;;;;;5017866;28;20072;-70
2022/06/28 03:53:58;;;;;;;0.10;0.10;;;;;;;;;;5017632;28;20038;-70
2022/06/28 03:56:26;;;;;;;0.10;0.10;;;;;;;;;;5016993;28;20057;-70
2022/06/28 03:58:52;;;;;;;0.20;0.20;;;;;;;;;;5017577;28;20038;-70
2022/06/28 04:01:18;;;;;;;0.30;0.30;;;;;;;;;;5017765;28;20133;-70
2022/06/28 04:03:44;;;;;;;0.20;0.20;;;;;;;;;;5030823;28;20045;-70
2022/06/28 04:06:10;;;;;;;0.10;0.10;;;;;;;;;;5037415;28;20103;-69
2022/06/28 04:08:36;;;;;;;0.10;0.10;;;;;;;;;;5037163;28;20091;-70
2022/06/28 04:11:15;;;;;;;0.57;0.57;;;;;;;;;;5037250;28;20041;-70
2022/06/28 04:13:51;;;;;;;0.10;0.10;;;;;;;;;;5037380;28;20065;-70
2022/06/28 04:16:18;;;;;;;0.10;0.10;;;;;;;;;;5036758;28;20124;-70
2022/06/28 04:18:45;;;;;;;0.10;0.10;;;;;;;;;;5036266;28;20041;-70
2022/06/28 04:21:13;;;;;;;0.10;0.10;;;;;;;;;;5036756;28;20048;-70
2022/06/28 04:23:39;;;;;;;0.20;0.20;;;;;;;;;;5036842;28;20030;-71
2022/06/28 04:26:06;;;;;;;0.10;0.10;;;;;;;;;;5036655;28;20492;-71
2022/06/28 04:28:32;;;;;;;0.10;0.10;;;;;;;;;;5037166;28;20061;-70
2022/06/28 04:30:58;;;;;;;0.20;0.20;;;;;;;;;;5037503;28;20041;-70
2022/06/28 04:33:24;;;;;;;0.47;0.47;;;;;;;;;;5036868;28;20095;-70
2022/06/28 04:35:51;;;;;;;0.10;0.10;;;;;;;;;;5036954;28;20250;-70
2022/06/28 04:38:17;;;;;;;0.10;0.10;;;;;;;;;;5035009;28;20484;-70
2022/06/28 04:40:43;;;;;;;0.30;0.30;;;;;;;;;;5035613;28;20041;-70
2022/06/28 04:43:09;;;;;;;0.20;0.20;;;;;;;;;;5035290;28;20047;-70
2022/06/28 04:45:35;;;;;;;0.30;0.30;;;;;;;;;;5036152;28;20041;-70
2022/06/28 04:48:02;;;;;;;0.20;0.20;;;;;;;;;;5036626;28;20483;-70
2022/06/28 04:50:28;;;;;;;0.20;0.20;;;;;;;;;;5035330;28;20096;-70
2022/06/28 04:52:54;;;;;;;0.22;0.22;;;;;;;;;;5036506;28;20084;-70
2022/06/28 04:55:20;;;;;;;0.10;0.10;;;;;;;;;;5036498;28;20060;-70
2022/06/28 04:57:46;;;;;;;0.17;0.17;;;;;;;;;;5035964;28;20113;-70
2022/06/28 05:00:13;;;;;;;0.20;0.20;;;;;;;;;;5036228;28;20041;-70
2022/06/28 05:02:39;;;;;;;0.13;0.13;;;;;;;;;;5036402;28;20382;-70
2022/06/28 05:05:06;;;;;;;0.13;0.13;;;;;;;;;;5032553;28;20049;-70
2022/06/28 05:07:32;;;;;;;0.30;0.30;;;;;;;;;;5014795;28;20034;-70
2022/06/28 05:09:59;;;;;;;0.20;0.20;;;;;;;;;;5011899;28;20049;-70
2022/06/28 05:12:25;;;;;;;0.63;0.57;;;;;;;;;;5015518;28;20143;-70
2022/06/28 05:14:51;;;;;;;0.52;0.25;;;;;;;;;;5016050;28;20060;-70
2022/06/28 05:17:17;;;;;;;0.20;0.20;;;;;;;;;;5015479;28;20488;-70
2022/06/28 05:19:44;;;;;;;0.10;0.10;;;;;;;;;;5016328;28;20562;-69
2022/06/28 05:22:10;;;;;;;0.50;0.47;;;;;;;;;;5015742;28;20042;-67
2022/06/28 05:24:36;;;;;;;0.63;0.63;;;;;;;;;;5015721;28;20172;-67
2022/06/28 05:27:03;;;;;;;0.10;0.10;;;;;;;;;;5015111;28;20089;-68
2022/06/28 05:29:29;;;;;;;0.10;0.10;;;;;;;;;;5015470;28;20559;-68
2022/06/28 05:31:55;;;;;;;0.10;0.10;;;;;;;;;;5015514;28;20129;-67
2022/06/28 05:34:21;;;;;;;0.10;0.10;;;;;;;;;;5014671;28;20534;-67
2022/06/28 05:36:47;;;;;;;0.47;0.40;;;;;;;;;;5015509;28;20053;-68
2022/06/28 05:39:13;;;;;;;0.13;0.13;;;;;;;;;;5006555;28;20046;-67
2022/06/28 05:41:41;;;;;;;0.10;0.10;;;;;;;;;;5014384;28;20045;-68
2022/06/28 05:44:09;;;;;;;0.20;0.20;;;;;;;;;;5008671;28;20042;-68
2022/06/28 05:46:36;;;;;;;0.20;0.20;;;;;;;;;;5007439;28;20058;-69
2022/06/28 05:49:02;;;;;;;0.20;0.20;;;;;;;;;;5010612;28;20480;-69
2022/06/28 05:51:29;;;;;;;0.10;0.10;;;;;;;;;;5013548;28;20543;-71
2022/06/28 05:53:56;;;;;;;0.25;0.25;;;;;;;;;;5014113;28;20038;-69
2022/06/28 05:56:22;;;;;;;0.50;0.50;;;;;;;;;;5015441;28;20500;-69
2022/06/28 05:58:48;;;;;;;0.20;0.20;;;;;;;;;;5014817;28;20122;-69
2022/06/28 06:01:14;;;;;;;0.25;0.25;;;;;;;;;;5014875;28;20128;-69
2022/06/28 06:03:41;;;;;;;0.20;0.20;;;;;;;;;;5014940;28;20044;-70
2022/06/28 06:06:07;;;;;;;0.20;0.20;;;;;;;;;;5009452;28;20058;-70
2022/06/28 06:08:35;;;;;;;0.20;0.20;;;;;;;;;;4998110;28;20124;-70
2022/06/28 06:11:02;;;;;;;0.20;0.20;;;;;;;;;;5014924;28;20401;-70
2022/06/28 06:13:29;;;;;;;0.20;0.20;;;;;;;;;;5014929;28;20128;-70
2022/06/28 06:15:55;;;;;;;0.25;0.25;;;;;;;;;;5015011;28;20100;-70
2022/06/28 06:18:21;;;;;;;0.30;0.30;;;;;;;;;;5015049;28;20119;-70
2022/06/28 06:20:47;;;;;;;0.40;0.40;;;;;;;;;;5015016;28;20033;-70
2022/06/28 06:23:13;;;;;;;0.20;0.20;;;;;;;;;;5014929;28;20053;-70
2022/06/28 06:25:39;;;;;;;0.43;0.43;;;;;;;;;;5015389;28;20081;-70
2022/06/28 06:28:06;;;;;;;0.20;0.20;;;;;;;;;;5015148;28;20089;-70
2022/06/28 06:30:33;;;;;;;0.20;0.20;;;;;;;;;;5015752;28;20085;-70
2022/06/28 06:32:59;;;;;;;0.28;0.28;;;;;;;;;;5015115;28;20033;-70
2022/06/28 06:35:25;;;;;;;0.20;0.20;;;;;;;;;;5015679;28;20062;-70
2022/06/28 06:37:53;;;;;;;0.20;0.20;;;;;;;;;;5014722;28;20038;-70
2022/06/28 06:40:19;;;;;;;0.20;0.20;;;;;;;;;;5014286;28;20061;-71
2022/06/28 06:42:46;;;;;;;0.30;0.30;;;;;;;;;;5014971;28;20543;-70
2022/06/28 06:45:12;;;;;;;0.30;0.30;;;;;;;;;;5015339;28;20046;-70
2022/06/28 06:47:38;;;;;;;0.30;0.30;;;;;;;;;;5015117;28;20053;-70
2022/06/28 06:50:08;;;;;;;0.20;0.20;;;;;;;;;;5015555;28;20046;-70
2022/06/28 06:52:34;;;;;;;0.33;0.33;;;;;;;;;;5014883;28;20033;-70
2022/06/28 06:55:00;;;;;;;0.20;0.20;;;;;;;;;;5015088;28;20338;-70
2022/06/28 06:57:27;;;;;;;0.30;0.30;;;;;;;;;;5014911;28;20045;-70
2022/06/28 06:59:53;;;;;;;0.20;0.20;;;;;;;;;;5014912;28;20046;-70
2022/06/28 07:02:19;;;;;;;0.45;0.45;;;;;;;;;;5015054;28;20125;-70
2022/06/28 07:04:45;;;;;;;0.20;0.20;;;;;;;;;;5015189;28;20041;-70
2022/06/28 07:07:11;;;;;;;0.30;0.30;;;;;;;;;;5015099;28;20516;-70
2022/06/28 07:09:37;;;;;;;0.20;0.20;;;;;;;;;;5014814;28;20132;-70
2022/06/28 07:12:04;;;;;;;0.38;0.38;;;;;;;;;;5014845;28;20045;-70
2022/06/28 07:14:30;;;;;;;0.30;0.30;;;;;;;;;;5014655;28;20029;-70
2022/06/28 07:16:56;;;;;;;0.25;0.25;;;;;;;;;;5015012;28;20124;-70
2022/06/28 07:19:22;;;;;;;0.30;0.30;;;;;;;;;;5014549;28;20042;-70
2022/06/28 07:21:48;;;;;;;0.20;0.20;;;;;;;;;;5014726;28;20061;-70
2022/06/28 07:24:17;;;;;;;0.20;0.20;;;;;;;;;;5014646;28;20084;-70
2022/06/28 07:26:43;;;;;;;0.20;0.20;;;;;;;;;;5013949;28;20061;-70
2022/06/28 07:29:09;;;;;;;0.25;0.25;;;;;;;;;;5014294;28;20500;-70
2022/06/28 07:31:35;;;;;;;0.32;0.32;;;;;;;;;;5014430;28;20069;-70
2022/06/28 07:34:02;;;;;;;0.30;0.30;;;;;;;;;;5014317;28;20053;-70
2022/06/28 07:36:28;;;;;;;0.20;0.20;;;;;;;;;;5014566;28;20516;-70
2022/06/28 07:38:54;;;;;;;0.28;0.28;;;;;;;;;;5014195;28;20212;-70
2022/06/28 07:41:23;;;;;;;0.20;0.20;;;;;;;;;;5013815;28;20042;-69
2022/06/28 07:43:51;;;;;;;0.50;0.50;;;;;;;;;;5014223;28;20095;-69
2022/06/28 07:46:18;;;;;;;0.38;0.38;;;;;;;;;;5014188;28;20095;-69
2022/06/28 07:48:44;;;;;;;0.20;0.20;;;;;;;;;;5013871;28;20567;-69
2022/06/28 07:53:56;;;;;;;0.32;0.32;;;;;;;;;;5017722;28;20049;-69
2022/06/28 07:56:22;;;;;;;0.32;0.32;;;;;;;;;;5017247;28;20042;-69
2022/06/28 07:58:48;;;;;;;0.10;0.10;;;;;;;;;;5016372;28;20534;-69
2022/06/28 08:01:14;;;;;;;0.10;0.10;;;;;;;;;;5006868;28;20034;-69
2022/06/28 08:03:40;;;;;;;0.20;0.20;;;;;;;;;;4997907;28;20097;-69
2022/06/28 08:06:06;;;;;;;0.20;0.20;;;;;;;;;;5013741;28;20554;-69
2022/06/28 08:08:32;;;;;;;0.10;0.10;;;;;;;;;;5017059;28;20061;-69
2022/06/28 08:10:59;;;;;;;0.30;0.30;;;;;;;;;;5015881;28;20046;-69
2022/06/28 08:13:26;;;;;;;0.20;0.20;;;;;;;;;;5004405;28;20608;-69
2022/06/28 08:15:52;;;;;;;0.20;0.20;;;;;;;;;;5019191;28;20041;-67
2022/06/28 08:18:18;;;;;;;0.20;0.20;;;;;;;;;;5024241;28;20057;-68
2022/06/28 08:20:44;;;;;;;0.20;0.20;;;;;;;;;;5017047;28;20568;-69
2022/06/28 08:23:11;;;;;;;0.20;0.20;;;;;;;;;;5019970;28;20042;-69
2022/06/28 08:25:37;;;;;;;0.20;0.20;;;;;;;;;;5024923;28;20052;-69
2022/06/28 08:28:03;;;;;;;0.57;0.30;;;;;;;;;;5036345;28;20054;-69
2022/06/28 08:30:30;;;;;;;0.30;0.30;;;;;;;;;;5028561;28;20045;-69
2022/06/28 08:32:56;;;;;;;0.20;0.20;;;;;;;;;;5031880;28;20041;-69
2022/06/28 08:35:23;;;;;;;1.08;0.30;;;;;;;;;;5019155;28;20041;-69
2022/06/28 08:37:49;;;;;;;0.17;0.17;;;;;;;;;;5036609;28;20095;-70
2022/06/28 08:40:15;;;;;;;0.20;0.20;;;;;;;;;;5029422;28;20042;-70
2022/06/28 08:42:46;;;;;;;0.10;0.10;;;;;;;;;;5023558;28;20107;-70
2022/06/28 08:45:12;;;;;;;0.75;0.75;;;;;;;;;;5017325;28;20504;-69
2022/06/28 08:47:41;;;;;;;0.35;0.35;;;;;;;;;;5036241;28;20370;-70
2022/06/28 08:50:13;;;;;;;0.20;0.20;;;;;;;;;;5036668;28;20472;-70
2022/06/28 08:52:41;;;;;;;0.35;0.35;;;;;;;;;;5036466;28;20037;-70
2022/06/28 08:55:08;;;;;;;0.52;0.40;;;;;;;;;;5035680;28;20033;-70
2022/06/28 08:57:35;;;;;;;0.20;0.20;;;;;;;;;;5034575;28;20092;-69
2022/06/28 09:00:04;;;;;;;0.20;0.20;;;;;;;;;;5035196;28;20088;-69
2022/06/28 09:02:30;;;;;;;0.20;0.20;;;;;;;;;;5034911;28;20041;-69
2022/06/28 09:04:57;;;;;;;0.20;0.20;;;;;;;;;;5034107;28;20135;-69
2022/06/28 09:07:23;;;;;;;0.10;0.10;;;;;;;;;;5036293;28;20080;-69
2022/06/28 09:09:50;;;;;;;0.47;0.47;;;;;;;;;;5036305;28;20049;-69
2022/06/28 09:12:17;;;;;;;0.32;0.32;;;;;;;;;;5035679;28;20059;-69
2022/06/28 09:14:43;;;;;;;0.10;0.10;;;;;;;;;;5035875;28;20040;-69
2022/06/28 09:17:20;;;;;;;0.80;0.75;;;;;;;;;;5035597;28;20047;-69
2022/06/28 09:19:46;;;;;;;0.20;0.20;;;;;;;;;;5035850;28;20033;-70
2022/06/28 09:22:28;;;;;;;0.30;0.30;;;;;;;;;;5036040;28;20543;-70
2022/06/28 09:24:54;;;;;;;0.10;0.10;;;;;;;;;;5035821;28;20029;-70
2022/06/28 09:27:34;;;;;;;0.30;0.30;;;;;;;;;;5035561;28;20077;-69
2022/06/28 09:30:01;;;;;;;0.20;0.20;;;;;;;;;;5035740;28;20041;-69
2022/06/28 09:32:31;;;;;;;0.10;0.10;;;;;;;;;;5035557;28;20442;-70
2022/06/28 09:34:59;;;;;;;0.20;0.20;;;;;;;;;;5035797;28;20484;-69
2022/06/28 09:37:52;;;;;;;0.30;0.30;;;;;;;;;;5034693;28;20420;-70
2022/06/28 09:40:25;;;;;;;0.65;0.60;;;;;;;;;;5034263;28;20053;-69
2022/06/28 09:43:07;;;;;;;0.20;0.20;;;;;;;;;;5035599;28;20041;-69
2022/06/28 09:45:43;;;;;;;0.30;0.30;;;;;;;;;;5036284;28;20053;-69
2022/06/28 09:48:15;;;;;;;0.10;0.10;;;;;;;;;;5026385;28;20484;-69
2022/06/28 09:50:41;;;;;;;1.95;0.38;;;;;;;;;;5014816;28;20050;-70
2022/06/28 09:53:08;;;;;;;0.15;0.15;;;;;;;;;;5015210;28;20046;-69
2022/06/28 09:55:34;;;;;;;0.10;0.10;;;;;;;;;;5015671;28;20100;-71
2022/06/28 09:58:01;;;;;;;0.20;0.20;;;;;;;;;;5015697;28;20041;-71
2022/06/28 10:00:28;;;;;;;0.10;0.10;;;;;;;;;;5015032;28;20041;-71
2022/06/28 10:02:55;;;;;;;0.20;0.20;;;;;;;;;;5015042;28;20036;-71
2022/06/28 10:05:21;;;;;;;0.52;0.45;;;;;;;;;;5015389;28;20054;-70
2022/06/28 10:07:48;;;;;;;0.10;0.10;;;;;;;;;;5003872;28;20041;-71
2022/06/28 10:10:14;;;;;;;0.10;0.10;;;;;;;;;;5015367;28;20042;-71
2022/06/28 10:15:33;;;;;;;0.20;0.20;;;;;;;;;;5013566;28;20049;-71
2022/06/28 10:17:59;;;;;;;0.10;0.10;;;;;;;;;;4992529;28;20045;-71
2022/06/28 10:20:26;;;;;;;0.20;0.20;;;;;;;;;;5014285;28;20073;-71
2022/06/28 10:22:53;;;;;;;0.20;0.20;;;;;;;;;;5011544;28;20042;-71
2022/06/28 10:25:22;;;;;;;0.10;0.10;;;;;;;;;;5012722;28;20037;-71
2022/06/28 10:27:51;;;;;;;0.22;0.22;;;;;;;;;;5010635;28;20056;-72
2022/06/28 10:30:18;;;;;;;0.17;0.17;;;;;;;;;;4994386;28;20046;-72
2022/06/28 10:32:49;;;;;;;0.22;0.22;;;;;;;;;;5002819;28;20045;-72
2022/06/28 10:35:36;;;;;;;0.30;0.30;;;;;;;;;;5013107;28;20096;-72
2022/06/28 10:38:08;;;;;;;3.15;0.35;;;;;;;;;;4997524;28;20175;-72
2022/06/28 10:40:52;;;;;;;0.20;0.20;;;;;;;;;;5007708;28;20038;-71
2022/06/28 10:43:27;;;;;;;0.20;0.20;;;;;;;;;;5013622;28;20054;-71
2022/06/28 10:46:02;;;;;;;0.20;0.20;;;;;;;;;;5016466;28;20053;-69
2022/06/28 10:48:36;;;;;;;0.20;0.20;;;;;;;;;;5013495;28;20060;-70
2022/06/28 10:51:04;;;;;;;0.30;0.30;;;;;;;;;;5014306;28;20120;-70
2022/06/28 10:53:32;;;;;;;0.43;0.43;;;;;;;;;;5013416;28;20050;-70
2022/06/28 10:56:07;;;;;;;0.32;0.32;;;;;;;;;;5013196;28;20042;-71
2022/06/28 10:58:33;;;;;;;0.40;0.40;;;;;;;;;;5020327;28;20167;-72
2022/06/28 11:00:59;;;;;;;0.30;0.30;;;;;;;;;;5015302;28;20042;-72
2022/06/28 11:03:26;;;;;;;0.25;0.25;;;;;;;;;;5013002;28;20050;-71
2022/06/28 11:05:56;;;;;;;0.38;0.38;;;;;;;;;;5013670;28;20053;-70
2022/06/28 11:08:43;;;;;;;0.10;0.10;;;;;;;;;;5012052;28;20045;-72
2022/06/28 11:11:09;;;;;;;0.20;0.20;;;;;;;;;;5014607;28;20041;-70
2022/06/28 11:13:36;;;;;;;0.28;0.28;;;;;;;;;;5021701;28;20045;-70
2022/06/28 11:16:02;;;;;;;0.30;0.30;;;;;;;;;;5026041;28;20103;-70
2022/06/28 11:18:29;;;;;;;0.20;0.20;;;;;;;;;;5026084;28;20048;-70
2022/06/28 11:20:56;;;;;;;0.50;0.50;;;;;;;;;;5014362;28;20500;-70
2022/06/28 11:23:30;;;;;;;0.20;0.20;;;;;;;;;;5022303;28;20049;-70
2022/06/28 11:28:54;;;;;;;0.10;0.10;;;;;;;;;;5025026;28;20081;-71
2022/06/28 11:31:20;;;;;;;0.40;0.40;;;;;;;;;;5018318;28;20030;-70
2022/06/28 11:33:47;;;;;;;0.30;0.30;;;;;;;;;;5029339;28;20041;-70
2022/06/28 11:36:33;;;;;;;0.20;0.20;;;;;;;;;;5017746;28;20045;-70
2022/06/28 11:39:16;;;;;;;0.30;0.30;;;;;;;;;;5023347;28;20042;-70
2022/06/28 11:41:47;;;;;;;0.47;0.30;;;;;;;;;;5018487;28;20042;-70
2022/06/28 11:44:13;;;;;;;0.47;0.47;;;;;;;;;;5025620;28;20049;-69
2022/06/28 11:46:39;;;;;;;1.08;0.40;;;;;;;;;;5016657;28;20045;-69
2022/06/28 11:49:06;;;;;;;0.20;0.20;;;;;;;;;;5009970;28;20081;-70
2022/06/28 11:51:32;;;;;;;0.43;0.43;;;;;;;;;;5003295;28;20400;-70
2022/06/28 11:54:06;;;;;;;0.20;0.20;;;;;;;;;;5017088;28;20048;-70
2022/06/28 11:56:45;;;;;;;0.10;0.10;;;;;;;;;;5015663;28;20077;-70
2022/06/28 11:59:12;;;;;;;0.45;0.45;;;;;;;;;;5028112;28;20058;-70
2022/06/28 12:01:39;;;;;;;0.15;0.15;;;;;;;;;;5016562;28;20038;-70
2022/06/28 12:04:09;;;;;;;0.30;0.30;;;;;;;;;;5016574;28;20120;-70
2022/06/28 12:06:36;;;;;;;0.30;0.30;;;;;;;;;;5016617;28;20053;-70
2022/06/28 12:09:05;;;;;;;0.20;0.20;;;;;;;;;;5001067;28;20129;-70
2022/06/28 12:11:34;;;;;;;0.10;0.10;;;;;;;;;;4996078;28;20042;-71
2022/06/28 12:14:03;;;;;;;0.30;0.30;;;;;;;;;;4997336;28;20042;-71
2022/06/28 12:16:37;;;;;;;0.20;0.20;;;;;;;;;;4996883;28;20054;-71
2022/06/28 12:19:05;;;;;;;0.40;0.38;;;;;;;;;;4996003;28;20046;-71
2022/06/28 12:21:31;;;;;;;27.85;1.40;;;;;;;;;;5009243;28;20129;-71
2022/06/28 12:23:58;;;;;;;0.30;0.30;;;;;;;;;;5015946;28;20041;-71
2022/06/28 12:26:44;;;;;;;0.10;0.10;;;;;;;;;;5015136;28;20527;-72
2022/06/28 12:29:10;;;;;;;0.20;0.20;;;;;;;;;;5016262;28;20038;-71
2022/06/28 12:31:39;;;;;;;0.57;0.52;;;;;;;;;;5015305;28;20042;-71
2022/06/28 12:34:09;;;;;;;0.30;0.30;;;;;;;;;;5015365;28;20623;-71
2022/06/28 12:36:35;;;;;;;0.10;0.10;;;;;;;;;;5012969;28;20542;-71
2022/06/28 12:39:02;;;;;;;0.20;0.20;;;;;;;;;;5013490;28;20108;-71
2022/06/28 12:41:28;;;;;;;0.20;0.20;;;;;;;;;;5014733;28;20049;-71
2022/06/28 12:43:54;;;;;;;0.17;0.17;;;;;;;;;;5015849;28;20038;-71
2022/06/28 12:46:20;;;;;;;1.02;0.45;;;;;;;;;;5015277;28;20115;-71
2022/06/28 12:48:47;;;;;;;0.20;0.20;;;;;;;;;;5015371;28;20038;-71
2022/06/28 12:51:13;;;;;;;0.15;0.15;;;;;;;;;;5016117;28;20056;-70
2022/06/28 12:53:40;;;;;;;0.10;0.10;;;;;;;;;;5015656;28;20069;-71
2022/06/28 12:56:06;;;;;;;0.15;0.15;;;;;;;;;;5015740;28;20567;-71
2022/06/28 12:58:33;;;;;;;0.10;0.10;;;;;;;;;;5015161;28;20045;-71
2022/06/28 13:00:59;;;;;;;0.10;0.10;;;;;;;;;;5016000;28;20080;-71
2022/06/28 13:03:25;;;;;;;0.10;0.10;;;;;;;;;;5015679;28;20492;-70
2022/06/28 13:05:51;;;;;;;0.13;0.13;;;;;;;;;;5015757;28;20120;-71
2022/06/28 13:08:18;;;;;;;0.10;0.10;;;;;;;;;;5015280;28;20046;-71
2022/06/28 13:10:44;;;;;;;1.65;1.38;;;;;;;;;;5013357;28;20041;-71
2022/06/28 13:13:12;;;;;;;0.10;0.10;;;;;;;;;;5009404;28;20037;-71
2022/06/28 13:15:38;;;;;;;6.55;0.45;;;;;;;;;;5020156;28;20408;-71
2022/06/28 13:18:04;;;;;;;0.30;0.30;;;;;;;;;;5017926;28;20519;-71
2022/06/28 13:20:30;;;;;;;0.10;0.10;;;;;;;;;;5023853;28;20516;-71
2022/06/28 13:22:57;;;;;;;0.10;0.10;;;;;;;;;;5015856;28;20045;-71
2022/06/28 13:25:23;;;;;;;0.10;0.10;;;;;;;;;;5020154;28;20145;-71
2022/06/28 13:27:49;;;;;;;0.75;0.57;;;;;;;;;;5015574;28;20054;-71
2022/06/28 13:30:15;;;;;;;0.22;0.22;;;;;;;;;;5014911;28;20119;-71
2022/06/28 13:32:41;;;;;;;0.20;0.20;;;;;;;;;;5013775;28;20049;-71
2022/06/28 13:35:07;;;;;;;0.20;0.20;;;;;;;;;;5017132;28;20046;-71
2022/06/28 13:37:34;;;;;;;0.20;0.20;;;;;;;;;;5027013;28;20042;-71
2022/06/28 13:40:00;;;;;;;0.45;0.45;;;;;;;;;;5014370;28;20511;-71
2022/06/28 13:42:26;;;;;;;0.50;0.50;;;;;;;;;;5015633;28;20070;-70
2022/06/28 13:44:52;;;;;;;0.20;0.20;;;;;;;;;;5026609;28;20120;-70
2022/06/28 13:47:19;;;;;;;0.20;0.20;;;;;;;;;;5017640;28;20124;-70
2022/06/28 13:49:45;;;;;;;0.30;0.30;;;;;;;;;;5021315;28;20041;-70
2022/06/28 13:52:11;;;;;;;0.10;0.10;;;;;;;;;;5013018;28;20173;-70
2022/06/28 13:54:37;;;;;;;0.20;0.20;;;;;;;;;;5011233;28;20128;-72
2022/06/28 13:57:03;;;;;;;0.20;0.20;;;;;;;;;;5030662;28;20054;-70
2022/06/28 13:59:29;;;;;;;0.10;0.10;;;;;;;;;;5019619;28;20037;-70
2022/06/28 14:01:56;;;;;;;0.13;0.13;;;;;;;;;;5027578;28;20488;-70
2022/06/28 14:04:22;;;;;;;0.20;0.20;;;;;;;;;;5025541;28;20029;-70
2022/06/28 14:06:48;;;;;;;0.20;0.20;;;;;;;;;;5017224;28;20054;-70
2022/06/28 14:09:14;;;;;;;0.13;0.13;;;;;;;;;;5002871;28;20068;-70
2022/06/28 14:11:40;;;;;;;0.20;0.20;;;;;;;;;;5001024;28;20085;-70
2022/06/28 14:14:07;;;;;;;0.20;0.20;;;;;;;;;;4995688;28;20505;-69
2022/06/28 14:16:33;;;;;;;0.20;0.20;;;;;;;;;;5011733;28;20111;-70
2022/06/28 14:18:59;;;;;;;0.30;0.30;;;;;;;;;;5014119;28;20045;-70
2022/06/28 14:21:25;;;;;;;0.10;0.10;;;;;;;;;;5013773;28;20054;-70
2022/06/28 14:23:51;;;;;;;0.10;0.10;;;;;;;;;;5013125;28;20444;-70
2022/06/28 14:26:18;;;;;;;0.40;0.40;;;;;;;;;;5014004;28;20041;-70
2022/06/28 14:28:44;;;;;;;0.38;0.38;;;;;;;;;;5014883;28;20481;-70
2022/06/28 14:31:10;;;;;;;0.15;0.15;;;;;;;;;;5013235;28;20037;-70
2022/06/28 14:33:36;;;;;;;0.10;0.10;;;;;;;;;;5012740;28;20061;-70
2022/06/28 14:36:02;;;;;;;0.43;0.28;;;;;;;;;;5013654;28;20073;-70
2022/06/28 14:38:28;;;;;;;0.30;0.30;;;;;;;;;;4994884;28;20054;-70
2022/06/28 14:40:55;;;;;;;0.28;0.28;;;;;;;;;;4997471;28;20100;-70
2022/06/28 14:43:21;;;;;;;0.13;0.13;;;;;;;;;;5013532;28;20038;-70
2022/06/28 14:45:48;;;;;;;0.10;0.10;;;;;;;;;;5003825;28;20079;-70
2022/06/28 14:48:14;;;;;;;0.10;0.10;;;;;;;;;;5013079;28;20404;-71
2022/06/28 14:50:40;;;;;;;0.20;0.20;;;;;;;;;;5013050;28;20488;-70
2022/06/28 14:53:11;;;;;;;0.20;0.20;;;;;;;;;;5013368;28;20550;-72
2022/06/28 14:55:38;;;;;;;0.20;0.20;;;;;;;;;;5012542;28;20042;-71
2022/06/28 14:58:04;;;;;;;0.20;0.20;;;;;;;;;;5012838;28;20424;-70
2022/06/28 15:00:30;;;;;;;0.15;0.15;;;;;;;;;;5014528;28;20489;-70